Time;durP1;ratioP1;P1;durP2;ratioP2;P2;SDS_P1;SDS_P2;PMS_P1;PMS_P2;Temp;Humidity;BMP_temperature;BMP_pressure;BME280_temperature;BME280_humidity;BME280_pressure;Samples;Min_cycle;Max_cycle;Signal;HPM_P1;HPM_P2
2021/11/29 00:00:31;;;;;;;30.50;24.75;;;2.70;1.00;;;;;;5056963;28;20297;-81
2021/11/29 00:03:02;;;;;;;29.67;25.30;;;2.80;1.00;;;;;;5055011;28;20221;-79
2021/11/29 00:05:29;;;;;;;30.65;23.70;;;2.80;1.00;;;;;;5053302;28;20260;-81
2021/11/29 00:07:59;;;;;;;28.80;23.73;;;2.80;1.00;;;;;;5057138;28;20917;-80
2021/11/29 00:10:27;;;;;;;29.95;23.33;;;2.80;1.00;;;;;;5050118;28;20342;-81
2021/11/29 00:12:57;;;;;;;29.75;24.75;;;2.80;1.00;;;;;;5035540;28;20700;-79
2021/11/29 00:15:24;;;;;;;28.15;23.98;;;2.80;1.00;;;;;;5053062;28;20225;-81
2021/11/29 00:17:51;;;;;;;34.17;24.48;;;2.80;1.00;;;;;;5053642;28;20231;-80
2021/11/29 00:20:19;;;;;;;31.30;25.17;;;2.90;1.00;;;;;;5052616;28;20213;-81
2021/11/29 00:22:47;;;;;;;26.58;23.52;;;2.90;1.00;;;;;;5056420;28;22658;-80
2021/11/29 00:25:15;;;;;;;33.60;23.83;;;2.90;1.00;;;;;;5049699;28;20241;-81
2021/11/29 00:27:43;;;;;;;34.50;26.02;;;2.90;1.00;;;;;;5054368;28;20221;-81
2021/11/29 00:30:14;;;;;;;27.17;23.10;;;2.90;1.00;;;;;;5053285;28;20228;-80
2021/11/29 00:32:43;;;;;;;33.65;24.45;;;2.90;1.00;;;;;;5057609;28;20232;-81
2021/11/29 00:35:10;;;;;;;35.55;25.05;;;2.90;1.00;;;;;;5036612;28;20272;-80
2021/11/29 00:37:38;;;;;;;28.23;23.85;;;2.90;1.00;;;;;;5054557;28;20221;-80
2021/11/29 00:40:07;;;;;;;31.77;24.45;;;2.90;1.00;;;;;;5053196;28;20282;-80
2021/11/29 00:42:34;;;;;;;30.10;23.10;;;2.90;1.00;;;;;;5060132;28;20232;-82
2021/11/29 00:45:01;;;;;;;30.45;24.77;;;3.00;1.00;;;;;;5060618;28;21058;-81
2021/11/29 00:47:30;;;;;;;31.92;25.27;;;3.00;1.00;;;;;;5052241;28;21213;-81
2021/11/29 00:49:56;;;;;;;31.95;25.80;;;2.90;1.00;;;;;;5055177;28;20224;-80
2021/11/29 00:52:23;;;;;;;30.38;24.25;;;3.00;1.00;;;;;;5053923;28;20224;-80
2021/11/29 00:54:50;;;;;;;30.50;23.75;;;3.00;1.00;;;;;;5051476;28;21180;-81
2021/11/29 00:57:17;;;;;;;30.00;24.55;;;3.00;1.00;;;;;;5035454;28;20234;-80
2021/11/29 00:59:46;;;;;;;29.85;24.38;;;3.00;1.00;;;;;;5053242;28;20740;-80
2021/11/29 01:02:14;;;;;;;30.30;24.30;;;2.90;1.00;;;;;;5053951;28;20323;-80
2021/11/29 01:04:43;;;;;;;26.10;22.40;;;2.80;1.00;;;;;;5048425;28;20302;-80
2021/11/29 01:07:10;;;;;;;29.38;25.52;;;2.70;1.00;;;;;;5045689;28;21340;-81
2021/11/29 01:09:37;;;;;;;31.02;23.05;;;2.70;1.00;;;;;;5050410;28;20227;-80
2021/11/29 01:12:06;;;;;;;26.85;23.73;;;2.70;1.00;;;;;;5052126;28;20232;-81
2021/11/29 01:14:33;;;;;;;32.50;24.50;;;2.70;1.00;;;;;;5047068;28;21140;-80
2021/11/29 01:17:00;;;;;;;29.08;22.77;;;2.70;1.00;;;;;;5047385;28;20229;-80
2021/11/29 01:19:27;;;;;;;30.08;24.55;;;2.70;1.00;;;;;;5051876;28;20758;-80
2021/11/29 01:21:56;;;;;;;29.75;22.00;;;2.80;1.00;;;;;;5048997;28;20221;-80
2021/11/29 01:24:24;;;;;;;28.48;23.35;;;2.90;1.00;;;;;;5047176;28;20785;-81
2021/11/29 01:26:51;;;;;;;26.33;22.52;;;2.90;1.00;;;;;;5042830;28;20240;-79
2021/11/29 01:29:18;;;;;;;31.25;22.92;;;2.90;1.00;;;;;;5050568;28;21297;-80
2021/11/29 01:31:45;;;;;;;27.65;23.27;;;2.90;1.00;;;;;;5046099;28;20228;-78
2021/11/29 01:34:12;;;;;;;29.73;23.58;;;3.00;1.00;;;;;;5052402;28;20314;-79
2021/11/29 01:36:40;;;;;;;29.23;23.02;;;2.90;1.00;;;;;;5033354;28;20221;-78
2021/11/29 01:39:10;;;;;;;25.27;21.98;;;2.90;1.00;;;;;;5047843;28;20225;-80
2021/11/29 01:41:38;;;;;;;28.67;23.73;;;2.90;1.00;;;;;;5045939;28;21571;-79
2021/11/29 01:44:06;;;;;;;26.13;21.52;;;2.90;1.00;;;;;;5046575;28;20224;-80
2021/11/29 01:46:33;;;;;;;29.17;23.17;;;2.90;1.00;;;;;;5049312;28;20240;-80
2021/11/29 01:49:00;;;;;;;28.58;21.15;;;3.00;1.00;;;;;;5050317;28;20228;-79
2021/11/29 01:51:27;;;;;;;31.42;23.27;;;3.10;1.00;;;;;;5047022;28;20217;-81
2021/11/29 01:53:54;;;;;;;28.65;23.48;;;3.10;1.00;;;;;;5050137;28;20217;-81
2021/11/29 01:56:23;;;;;;;30.33;23.60;;;3.00;1.00;;;;;;5046307;28;20220;-81
2021/11/29 01:58:50;;;;;;;30.25;21.58;;;3.00;1.00;;;;;;5052795;28;20224;-80
2021/11/29 02:01:19;;;;;;;30.17;22.27;;;3.00;1.00;;;;;;5050880;28;20263;-82
2021/11/29 02:03:49;;;;;;;29.23;22.10;;;3.00;1.00;;;;;;5055568;28;20251;-81
2021/11/29 02:06:16;;;;;;;28.98;21.95;;;3.10;1.00;;;;;;5047697;28;20240;-81
2021/11/29 02:08:43;;;;;;;27.60;20.35;;;3.10;1.00;;;;;;5048350;28;20277;-81
2021/11/29 02:11:11;;;;;;;30.17;23.35;;;3.10;1.00;;;;;;5046050;28;20221;-81
2021/11/29 02:13:39;;;;;;;29.35;21.17;;;3.10;1.00;;;;;;5050233;28;20249;-81
2021/11/29 02:16:07;;;;;;;30.38;22.60;;;3.10;1.00;;;;;;5057612;28;20228;-80
2021/11/29 02:18:39;;;;;;;28.80;22.35;;;3.10;1.00;;;;;;5052614;28;20221;-81
2021/11/29 02:21:10;;;;;;;26.25;20.55;;;3.10;1.00;;;;;;5050516;28;20618;-80
2021/11/29 02:23:40;;;;;;;25.48;20.52;;;3.00;1.00;;;;;;5050879;28;20224;-80
2021/11/29 02:26:08;;;;;;;26.83;21.75;;;3.00;1.00;;;;;;5047607;28;20233;-79
2021/11/29 02:28:36;;;;;;;28.17;21.92;;;3.10;1.00;;;;;;5047156;28;21231;-80
2021/11/29 02:31:07;;;;;;;33.63;24.17;;;3.10;1.00;;;;;;5050884;28;20610;-82
2021/11/29 02:33:35;;;;;;;30.38;23.10;;;3.10;1.00;;;;;;5033014;28;20228;-80
2021/11/29 02:36:03;;;;;;;31.50;23.13;;;3.10;1.00;;;;;;5060511;27;20268;-80
2021/11/29 02:38:32;;;;;;;26.60;22.17;;;3.20;1.00;;;;;;5045093;28;20221;-80
2021/11/29 02:41:00;;;;;;;29.20;22.42;;;3.20;1.00;;;;;;5049584;28;20221;-81
2021/11/29 02:43:28;;;;;;;29.40;22.33;;;3.20;1.00;;;;;;5044724;28;20331;-81
2021/11/29 02:45:56;;;;;;;28.45;20.13;;;3.30;1.00;;;;;;5048102;28;20229;-78
2021/11/29 02:48:39;;;;;;;30.65;20.33;;;3.20;1.00;;;;;;5047471;28;20216;-80
2021/11/29 02:51:06;;;;;;;32.80;19.65;;;3.20;1.00;;;;;;5053548;28;20237;-81
2021/11/29 02:53:34;;;;;;;33.40;21.40;;;3.20;1.00;;;;;;5051549;28;20308;-80
2021/11/29 02:56:02;;;;;;;30.83;20.98;;;3.20;1.00;;;;;;5053579;28;20228;-80
2021/11/29 02:58:29;;;;;;;30.67;20.02;;;3.10;1.00;;;;;;5044493;28;20292;-79
2021/11/29 03:00:56;;;;;;;35.60;21.77;;;3.10;1.00;;;;;;5051873;28;20228;-80
2021/11/29 03:03:23;;;;;;;30.13;18.67;;;3.10;1.00;;;;;;5050797;28;20840;-80
2021/11/29 03:05:50;;;;;;;31.50;22.02;;;3.10;1.00;;;;;;5052559;28;20225;-79
2021/11/29 03:08:17;;;;;;;29.20;19.40;;;3.10;1.00;;;;;;5031946;28;20286;-81
2021/11/29 03:10:46;;;;;;;30.75;19.42;;;3.10;1.00;;;;;;5030776;28;20229;-80
2021/11/29 03:13:13;;;;;;;26.35;18.63;;;3.10;1.00;;;;;;5046333;28;20231;-80
2021/11/29 03:15:39;;;;;;;26.63;18.65;;;3.00;1.00;;;;;;5049213;28;20231;-80
2021/11/29 03:18:06;;;;;;;26.83;16.85;;;3.00;1.00;;;;;;5052375;28;20660;-81
2021/11/29 03:20:33;;;;;;;22.75;16.73;;;3.00;1.00;;;;;;5051986;28;20228;-81
2021/11/29 03:23:00;;;;;;;23.60;16.13;;;3.00;1.00;;;;;;5052086;28;20229;-80
2021/11/29 03:25:27;;;;;;;25.20;16.98;;;2.90;1.00;;;;;;5060191;28;20220;-81
2021/11/29 03:27:56;;;;;;;31.27;21.70;;;2.90;1.00;;;;;;5054564;28;20225;-81
2021/11/29 03:30:23;;;;;;;25.65;17.75;;;2.90;1.00;;;;;;5053154;28;20221;-78
2021/11/29 03:32:50;;;;;;;26.35;16.48;;;2.90;1.00;;;;;;5034889;28;20513;-79
2021/11/29 03:35:17;;;;;;;27.83;19.10;;;2.90;1.00;;;;;;5051218;28;20768;-78
2021/11/29 03:37:44;;;;;;;27.17;18.33;;;2.90;1.00;;;;;;5050134;28;20298;-78
2021/11/29 03:40:12;;;;;;;27.33;17.80;;;2.90;1.00;;;;;;5054082;28;20277;-78
2021/11/29 03:42:39;;;;;;;26.60;19.65;;;3.00;1.00;;;;;;5052364;28;20228;-78
2021/11/29 03:45:08;;;;;;;28.50;20.63;;;3.00;1.00;;;;;;5064576;28;20225;-81
2021/11/29 03:47:35;;;;;;;27.80;19.08;;;3.00;1.00;;;;;;5052795;28;20236;-80
2021/11/29 03:50:02;;;;;;;27.55;20.52;;;3.00;1.00;;;;;;5057019;28;20240;-78
2021/11/29 03:52:29;;;;;;;29.52;21.65;;;3.00;1.00;;;;;;5053900;28;20221;-79
2021/11/29 03:54:56;;;;;;;28.05;19.13;;;3.00;1.00;;;;;;5055200;28;20237;-79
2021/11/29 03:57:23;;;;;;;31.52;20.55;;;3.10;1.00;;;;;;5052976;28;20229;-80
2021/11/29 03:59:50;;;;;;;32.10;20.35;;;3.10;1.00;;;;;;5051787;28;21323;-78
2021/11/29 04:02:19;;;;;;;35.10;21.98;;;3.10;1.00;;;;;;5056271;28;20839;-79
2021/11/29 04:04:45;;;;;;;37.00;23.77;;;3.10;1.00;;;;;;5056455;28;20831;-79
2021/11/29 04:07:12;;;;;;;37.00;23.30;;;3.20;1.00;;;;;;5054859;28;20232;-80
2021/11/29 04:09:39;;;;;;;32.63;21.52;;;3.20;1.00;;;;;;5033087;28;20230;-80
2021/11/29 04:12:08;;;;;;;32.08;20.88;;;3.30;1.00;;;;;;5056896;28;20232;-80
2021/11/29 04:14:35;;;;;;;31.50;21.60;;;3.30;1.00;;;;;;5054675;28;20217;-77
2021/11/29 04:17:02;;;;;;;33.65;22.17;;;3.30;1.00;;;;;;5056258;28;20232;-80
2021/11/29 04:19:30;;;;;;;37.53;23.70;;;3.30;1.00;;;;;;5052617;28;20213;-79
2021/11/29 04:21:57;;;;;;;34.80;21.25;;;3.30;1.00;;;;;;5053275;28;20217;-78
2021/11/29 04:24:25;;;;;;;40.00;24.27;;;3.30;1.00;;;;;;5060540;28;20802;-79
2021/11/29 04:26:54;;;;;;;36.63;23.38;;;3.30;1.00;;;;;;5050687;28;20244;-79
2021/11/29 04:29:25;;;;;;;33.35;22.25;;;3.30;1.00;;;;;;5053452;28;20225;-78
2021/11/29 04:31:52;;;;;;;38.08;22.98;;;3.30;1.00;;;;;;5052119;28;20288;-79
2021/11/29 04:34:19;;;;;;;33.53;23.00;;;3.30;1.00;;;;;;5059465;28;20225;-80
2021/11/29 04:36:47;;;;;;;37.00;22.70;;;3.30;1.00;;;;;;5053654;28;20224;-79
2021/11/29 04:39:17;;;;;;;36.97;22.67;;;3.30;1.00;;;;;;5054371;28;21699;-79
2021/11/29 04:41:44;;;;;;;42.55;26.30;;;3.30;1.00;;;;;;5052680;28;20221;-80
2021/11/29 04:44:11;;;;;;;42.50;24.40;;;3.30;1.00;;;;;;5052969;28;21290;-78
2021/11/29 04:46:38;;;;;;;35.00;23.48;;;3.40;1.00;;;;;;5054986;28;21073;-79
2021/11/29 04:49:05;;;;;;;36.53;22.58;;;3.40;1.00;;;;;;5053451;28;20226;-79
2021/11/29 04:51:32;;;;;;;38.08;23.98;;;3.40;1.00;;;;;;5051752;28;20217;-80
2021/11/29 04:54:02;;;;;;;35.00;24.65;;;3.40;1.00;;;;;;5054941;28;20217;-79
2021/11/29 04:56:29;;;;;;;39.20;24.30;;;3.40;1.00;;;;;;5055732;28;20226;-79
2021/11/29 04:59:00;;;;;;;45.47;28.55;;;3.40;1.00;;;;;;5055090;28;20232;-80
2021/11/29 05:01:27;;;;;;;43.65;25.80;;;3.40;1.00;;;;;;5050683;28;20284;-79
2021/11/29 05:03:54;;;;;;;41.53;26.30;;;3.40;1.00;;;;;;5058691;28;20256;-79
2021/11/29 05:06:21;;;;;;;41.55;26.05;;;3.40;1.00;;;;;;5053491;28;20232;-79
2021/11/29 05:08:48;;;;;;;44.78;26.42;;;3.40;1.00;;;;;;5055511;28;20221;-80
2021/11/29 05:11:17;;;;;;;38.70;25.80;;;3.40;1.00;;;;;;5038029;28;20252;-79
2021/11/29 05:13:44;;;;;;;44.75;25.45;;;3.30;1.00;;;;;;5065795;28;20225;-79
2021/11/29 05:16:13;;;;;;;46.67;29.27;;;3.40;1.00;;;;;;5058974;28;21177;-79
2021/11/29 05:18:40;;;;;;;44.60;27.00;;;3.40;1.00;;;;;;5055672;28;20251;-79
2021/11/29 05:21:07;;;;;;;43.38;25.65;;;3.40;1.00;;;;;;5052493;28;21098;-80
2021/11/29 05:23:34;;;;;;;41.08;27.23;;;3.40;1.00;;;;;;5059342;28;20241;-80
2021/11/29 05:26:01;;;;;;;48.67;28.00;;;3.40;1.00;;;;;;5062010;28;21227;-78
2021/11/29 05:28:30;;;;;;;42.45;25.75;;;3.40;1.00;;;;;;5060534;28;20319;-78
2021/11/29 05:30:57;;;;;;;45.85;27.30;;;3.40;1.00;;;;;;5047789;28;20228;-78
2021/11/29 05:33:24;;;;;;;37.63;24.83;;;3.40;1.00;;;;;;5054004;28;20326;-78
2021/11/29 05:35:51;;;;;;;38.47;24.67;;;3.40;1.00;;;;;;5050726;28;21970;-78
2021/11/29 05:38:18;;;;;;;37.47;24.85;;;3.40;1.00;;;;;;5050399;28;21021;-78
2021/11/29 05:40:45;;;;;;;38.63;24.38;;;3.40;1.00;;;;;;5052436;28;20225;-77
2021/11/29 05:43:12;;;;;;;40.22;25.30;;;3.40;1.00;;;;;;5054821;28;20336;-76
2021/11/29 05:45:41;;;;;;;41.10;25.63;;;3.30;1.00;;;;;;5047798;28;20276;-79
2021/11/29 05:48:08;;;;;;;42.30;24.90;;;3.30;1.00;;;;;;5058111;28;20228;-76
2021/11/29 05:50:37;;;;;;;39.33;25.02;;;3.20;1.00;;;;;;5057804;28;20225;-79
2021/11/29 05:53:04;;;;;;;44.15;25.30;;;3.20;1.00;;;;;;5049999;28;20232;-77
2021/11/29 05:55:32;;;;;;;38.55;24.65;;;3.30;1.00;;;;;;5048599;28;24216;-78
2021/11/29 05:57:59;;;;;;;39.17;26.05;;;3.30;1.00;;;;;;5051728;28;20908;-78
2021/11/29 06:06:09;;;;;;;42.83;25.75;;;3.30;1.00;;;;;;5057549;28;20225;-77
2021/11/29 06:11:27;;;;;;;45.58;25.23;;;3.30;1.00;;;;;;5060351;28;20336;-76
2021/11/29 06:13:54;;;;;;;42.38;25.42;;;3.30;1.00;;;;;;5069986;28;20213;-77
2021/11/29 06:22:05;;;;;;;43.13;27.90;;;3.30;1.00;;;;;;5048401;28;20243;-77
2021/11/29 06:24:32;;;;;;;41.97;25.55;;;3.30;1.00;;;;;;5033908;28;20225;-77
2021/11/29 06:32:41;;;;;;;46.47;27.40;;;3.30;1.00;;;;;;5045990;28;20971;-76
2021/11/29 06:35:11;;;;;;;40.85;28.70;;;3.40;1.00;;;;;;5053283;28;20208;-78
2021/11/29 06:37:39;;;;;;;44.53;26.92;;;3.40;1.00;;;;;;5048262;28;20323;-78
2021/11/29 06:40:07;;;;;;;44.38;25.88;;;3.50;1.00;;;;;;5050139;28;20336;-77
2021/11/29 06:42:35;;;;;;;41.63;25.88;;;3.50;1.00;;;;;;5058183;28;20245;-78
2021/11/29 06:45:02;;;;;;;44.47;25.40;;;3.50;1.00;;;;;;5051816;28;20220;-79
2021/11/29 06:47:29;;;;;;;38.40;24.15;;;3.60;1.00;;;;;;5054714;28;20231;-78
2021/11/29 06:49:57;;;;;;;37.80;23.33;;;3.50;1.00;;;;;;5055200;28;20271;-78
2021/11/29 06:52:28;;;;;;;39.03;23.08;;;3.50;1.00;;;;;;5062676;28;20216;-79
2021/11/29 06:54:55;;;;;;;36.83;22.92;;;3.50;1.00;;;;;;5065675;28;20221;-77
2021/11/29 06:57:22;;;;;;;35.15;23.27;;;3.40;1.00;;;;;;5069837;28;20231;-79
2021/11/29 06:59:49;;;;;;;37.20;22.70;;;3.40;1.00;;;;;;5062801;28;20208;-78
2021/11/29 07:02:18;;;;;;;39.67;22.80;;;3.40;1.00;;;;;;5069757;28;20233;-77
2021/11/29 07:04:45;;;;;;;35.20;23.00;;;3.40;1.00;;;;;;5070505;28;20228;-77
2021/11/29 07:07:13;;;;;;;36.17;22.67;;;3.40;1.00;;;;;;5068803;28;20232;-78
2021/11/29 07:09:42;;;;;;;34.08;22.90;;;3.30;1.00;;;;;;5068328;28;20539;-77
2021/11/29 07:12:10;;;;;;;34.13;22.05;;;3.30;1.00;;;;;;5068314;28;20228;-78
2021/11/29 07:14:37;;;;;;;29.45;20.80;;;3.30;1.00;;;;;;5070642;28;20272;-78
2021/11/29 07:17:05;;;;;;;37.40;23.40;;;3.30;1.00;;;;;;5048661;28;20422;-77
2021/11/29 07:19:32;;;;;;;35.60;23.55;;;3.30;1.00;;;;;;5068470;28;20221;-77
2021/11/29 07:21:59;;;;;;;35.28;21.85;;;3.30;1.00;;;;;;5063688;28;20248;-77
2021/11/29 07:24:26;;;;;;;34.92;23.02;;;3.30;1.00;;;;;;5059314;28;20216;-78
2021/11/29 07:26:54;;;;;;;39.53;25.73;;;3.30;1.00;;;;;;5059958;28;20229;-77
2021/11/29 07:29:22;;;;;;;36.47;23.10;;;3.30;1.00;;;;;;5054997;28;20225;-77
2021/11/29 07:31:49;;;;;;;35.35;22.77;;;3.30;1.00;;;;;;5035650;28;20221;-78
2021/11/29 07:34:16;;;;;;;34.20;22.02;;;3.40;1.00;;;;;;5055962;28;20243;-78
2021/11/29 07:36:43;;;;;;;36.38;23.80;;;3.40;1.00;;;;;;5056000;28;20259;-77
2021/11/29 07:39:11;;;;;;;33.03;21.88;;;3.40;1.00;;;;;;5054758;28;20223;-77
2021/11/29 07:41:38;;;;;;;35.17;21.95;;;3.40;1.00;;;;;;5055421;28;20213;-79
2021/11/29 07:44:07;;;;;;;33.90;23.23;;;3.50;1.00;;;;;;5068098;28;20259;-78
2021/11/29 07:46:34;;;;;;;29.25;19.90;;;3.50;1.00;;;;;;5055521;28;20696;-78
2021/11/29 07:49:01;;;;;;;31.85;19.92;;;3.50;1.00;;;;;;5057298;28;20236;-78
2021/11/29 07:51:28;;;;;;;30.90;20.58;;;3.50;1.00;;;;;;5058451;28;20225;-76
2021/11/29 07:53:55;;;;;;;31.60;21.17;;;3.50;1.00;;;;;;5059905;28;20252;-76
2021/11/29 07:56:22;;;;;;;31.80;21.73;;;3.50;1.00;;;;;;5057751;28;20233;-77
2021/11/29 07:58:49;;;;;;;28.08;20.35;;;3.40;1.00;;;;;;5062698;28;20225;-79
2021/11/29 08:01:17;;;;;;;35.00;21.35;;;3.50;1.00;;;;;;5056072;28;20221;-78
2021/11/29 08:03:44;;;;;;;34.38;22.95;;;3.50;1.00;;;;;;5060534;28;20221;-77
2021/11/29 08:06:11;;;;;;;34.45;24.48;;;3.50;1.00;;;;;;5059385;28;20231;-77
2021/11/29 08:08:38;;;;;;;32.63;21.85;;;3.60;1.00;;;;;;5062849;28;20235;-77
2021/11/29 08:11:05;;;;;;;32.35;21.67;;;3.60;1.00;;;;;;5067764;28;20324;-77
2021/11/29 08:13:32;;;;;;;33.15;21.90;;;3.60;1.00;;;;;;5052388;28;20251;-76
2021/11/29 08:15:59;;;;;;;34.97;23.17;;;3.60;1.00;;;;;;5057074;28;20225;-78
2021/11/29 08:18:28;;;;;;;35.88;22.15;;;3.60;1.00;;;;;;5051117;28;20228;-78
2021/11/29 08:20:56;;;;;;;31.10;21.10;;;3.50;1.00;;;;;;5039021;28;21043;-77
2021/11/29 08:23:23;;;;;;;33.72;21.40;;;3.50;1.00;;;;;;5060568;28;20233;-78
2021/11/29 08:25:50;;;;;;;31.40;20.60;;;3.50;1.00;;;;;;5057539;28;20233;-77
2021/11/29 08:28:17;;;;;;;31.45;21.10;;;3.40;1.00;;;;;;5058901;28;20243;-77
2021/11/29 08:30:45;;;;;;;32.63;21.83;;;3.40;1.00;;;;;;5063840;28;20311;-78
2021/11/29 08:33:13;;;;;;;36.42;21.98;;;3.40;1.00;;;;;;5053864;28;20220;-78
2021/11/29 08:35:42;;;;;;;36.72;23.80;;;3.50;1.00;;;;;;5055023;28;20288;-78
2021/11/29 08:38:09;;;;;;;33.70;22.10;;;3.50;1.00;;;;;;5057512;28;20224;-78
2021/11/29 08:40:36;;;;;;;34.60;21.15;;;3.60;1.00;;;;;;5057124;28;20588;-78
2021/11/29 08:43:08;;;;;;;31.58;21.02;;;3.60;1.00;;;;;;5059013;28;20224;-79
2021/11/29 08:45:35;;;;;;;33.25;21.23;;;3.60;1.00;;;;;;5054806;28;20236;-79
2021/11/29 08:48:05;;;;;;;36.92;23.60;;;3.60;1.00;;;;;;5055604;28;20323;-77
2021/11/29 08:50:33;;;;;;;34.00;23.20;;;3.60;1.00;;;;;;5051580;28;20220;-78
2021/11/29 08:53:05;;;;;;;30.95;21.90;;;3.60;1.00;;;;;;5056647;28;20224;-78
2021/11/29 08:55:34;;;;;;;35.65;22.60;;;3.60;1.00;;;;;;5054941;28;20213;-77
2021/11/29 08:58:02;;;;;;;31.73;20.85;;;3.70;1.00;;;;;;5056550;28;20224;-79
2021/11/29 09:00:29;;;;;;;38.72;25.77;;;3.60;1.00;;;;;;5059742;28;20212;-76
2021/11/29 09:02:58;;;;;;;36.03;22.17;;;3.60;1.00;;;;;;5046462;28;20299;-78
2021/11/29 09:05:25;;;;;;;35.40;22.20;;;3.60;1.00;;;;;;5059908;28;20229;-77
2021/11/29 09:07:52;;;;;;;36.38;21.98;;;3.60;1.00;;;;;;5056714;28;20229;-77
2021/11/29 09:10:23;;;;;;;37.28;23.52;;;3.60;1.00;;;;;;5057003;28;20218;-77
2021/11/29 09:12:51;;;;;;;31.67;21.48;;;3.70;1.00;;;;;;5056283;28;20808;-77
2021/11/29 09:15:19;;;;;;;36.63;22.38;;;3.70;1.00;;;;;;5059172;28;20229;-77
2021/11/29 09:17:46;;;;;;;32.60;22.67;;;3.70;1.00;;;;;;5058555;28;20355;-78
2021/11/29 09:20:16;;;;;;;33.88;21.23;;;3.80;1.00;;;;;;5059766;28;20302;-77
2021/11/29 09:22:44;;;;;;;32.85;21.52;;;3.80;1.00;;;;;;5062091;28;20224;-79
2021/11/29 09:25:12;;;;;;;30.73;19.90;;;3.80;1.00;;;;;;5058366;28;20221;-78
2021/11/29 09:27:43;;;;;;;38.55;25.35;;;3.80;1.00;;;;;;5064074;28;20260;-77
2021/11/29 09:30:12;;;;;;;32.78;20.83;;;3.80;1.00;;;;;;5056559;28;20229;-77
2021/11/29 09:32:39;;;;;;;31.95;19.80;;;3.80;1.00;;;;;;5059905;28;20246;-79
2021/11/29 09:35:09;;;;;;;27.48;19.45;;;3.80;1.00;;;;;;5056368;28;20212;-79
2021/11/29 09:37:37;;;;;;;33.25;20.48;;;3.80;1.00;;;;;;5057878;28;20229;-76
2021/11/29 09:40:06;;;;;;;30.02;19.15;;;3.80;1.00;;;;;;5057872;28;20295;-77
2021/11/29 09:42:36;;;;;;;29.92;20.40;;;3.80;1.00;;;;;;5059898;28;20216;-76
2021/11/29 09:45:05;;;;;;;28.75;18.08;;;3.90;1.00;;;;;;5051000;28;20229;-79
2021/11/29 09:47:32;;;;;;;28.90;18.83;;;4.00;1.00;;;;;;5050698;28;20228;-79
2021/11/29 09:50:00;;;;;;;31.98;19.05;;;4.00;1.00;;;;;;5050541;28;20219;-78
2021/11/29 09:52:27;;;;;;;33.78;20.95;;;4.10;1.00;;;;;;5052729;28;20303;-79
2021/11/29 09:54:54;;;;;;;31.00;19.48;;;4.10;1.00;;;;;;5055377;28;20225;-78
2021/11/29 09:57:22;;;;;;;32.97;20.60;;;4.10;1.00;;;;;;5051108;28;20230;-80
2021/11/29 09:59:50;;;;;;;33.30;19.67;;;4.10;1.00;;;;;;5054005;28;20263;-77
2021/11/29 10:12:47;;;;;;;25.73;17.20;;;4.20;1.00;;;;;;5055901;28;20225;-79
2021/11/29 10:15:41;;;;;;;40.20;24.55;;;4.10;1.00;;;;;;5054218;28;20228;-77
2021/11/29 10:18:33;;;;;;;30.83;18.60;;;4.00;1.00;;;;;;5060858;28;20234;-77
2021/11/29 10:21:05;;;;;;;33.05;19.58;;;4.00;1.00;;;;;;5040050;28;21001;-77
2021/11/29 10:23:36;;;;;;;31.65;20.35;;;3.90;1.00;;;;;;5052335;28;20280;-79
2021/11/29 10:26:06;;;;;;;31.45;19.65;;;4.00;1.00;;;;;;5053415;28;20224;-78
2021/11/29 10:28:36;;;;;;;32.42;20.05;;;4.00;1.00;;;;;;5053134;28;20319;-77
2021/11/29 10:31:08;;;;;;;31.13;19.05;;;4.00;1.00;;;;;;5054113;28;21546;-77
2021/11/29 10:33:45;;;;;;;32.72;20.50;;;4.00;1.00;;;;;;5055100;28;21100;-77
2021/11/29 10:36:15;;;;;;;35.25;21.35;;;4.10;1.00;;;;;;5053562;28;20226;-77
2021/11/29 10:38:45;;;;;;;30.52;21.83;;;4.10;1.00;;;;;;5051752;28;20216;-78
2021/11/29 10:41:12;;;;;;;28.02;20.20;;;4.10;1.00;;;;;;5048165;28;20277;-77
2021/11/29 10:43:41;;;;;;;31.98;19.92;;;4.20;1.00;;;;;;5055613;28;20334;-76
2021/11/29 10:46:19;;;;;;;26.95;19.40;;;4.10;1.00;;;;;;5053805;28;20746;-77
2021/11/29 10:48:46;;;;;;;32.25;19.55;;;4.20;1.00;;;;;;5057191;28;20221;-78
2021/11/29 10:51:18;;;;;;;33.08;20.30;;;4.20;1.00;;;;;;5050853;28;20336;-78
2021/11/29 10:53:51;;;;;;;29.35;18.23;;;4.30;1.00;;;;;;5054904;28;20239;-77
2021/11/29 10:56:19;;;;;;;27.77;17.27;;;4.40;1.00;;;;;;5052834;28;20224;-79
2021/11/29 10:58:49;;;;;;;26.25;16.90;;;4.50;1.00;;;;;;5055668;28;20229;-76
2021/11/29 11:01:18;;;;;;;26.80;18.55;;;4.50;1.00;;;;;;5051207;28;20886;-77
2021/11/29 11:03:54;;;;;;;24.05;16.70;;;4.60;1.00;;;;;;5053464;28;20224;-77
2021/11/29 11:06:30;;;;;;;27.52;16.50;;;4.60;1.00;;;;;;5052654;28;20242;-77
2021/11/29 11:08:58;;;;;;;25.92;17.27;;;4.70;1.00;;;;;;5050800;28;21331;-76
2021/11/29 11:11:41;;;;;;;27.55;18.48;;;4.60;1.00;;;;;;5049143;28;20787;-78
2021/11/29 11:14:11;;;;;;;26.02;16.73;;;4.60;1.00;;;;;;5050994;28;20212;-76
2021/11/29 11:16:59;;;;;;;26.00;17.00;;;4.50;1.00;;;;;;5048703;28;20236;-75
2021/11/29 11:19:30;;;;;;;23.13;15.52;;;4.50;1.00;;;;;;5047824;28;20227;-77
2021/11/29 11:22:00;;;;;;;25.73;16.35;;;4.60;1.00;;;;;;5051457;28;20308;-76
2021/11/29 11:24:31;;;;;;;25.23;15.60;;;4.70;1.00;;;;;;5057849;28;20330;-76
2021/11/29 11:26:59;;;;;;;25.38;16.00;;;4.80;1.00;;;;;;5053628;28;20226;-78
2021/11/29 11:29:51;;;;;;;23.23;16.20;;;5.00;1.00;;;;;;5050590;28;20338;-76
2021/11/29 11:32:42;;;;;;;25.17;17.35;;;5.10;1.00;;;;;;5049605;28;20221;-78
2021/11/29 11:35:11;;;;;;;24.70;15.95;;;5.10;1.00;;;;;;5042041;28;21036;-77
2021/11/29 11:37:41;;;;;;;21.52;14.65;;;5.10;1.00;;;;;;5053244;28;20228;-77
2021/11/29 11:40:10;;;;;;;26.20;16.13;;;5.10;1.00;;;;;;5051585;28;20229;-79
2021/11/29 11:42:40;;;;;;;21.33;14.73;;;5.00;1.00;;;;;;5056918;28;20617;-77
2021/11/29 11:45:09;;;;;;;22.75;16.17;;;4.90;1.00;;;;;;5060040;28;20303;-77
2021/11/29 11:47:37;;;;;;;24.35;17.08;;;4.90;1.00;;;;;;5053614;28;20225;-78
2021/11/29 11:50:06;;;;;;;21.10;14.55;;;4.90;1.00;;;;;;5053255;28;20234;-78
2021/11/29 11:52:33;;;;;;;25.23;14.77;;;4.90;1.00;;;;;;5051940;28;20227;-77
2021/11/29 11:55:03;;;;;;;16.08;12.95;;;4.90;1.00;;;;;;5059097;28;20241;-78
2021/11/29 11:57:32;;;;;;;20.35;12.13;;;4.90;1.00;;;;;;5054498;28;20229;-79
2021/11/29 12:00:14;;;;;;;19.63;13.02;;;4.80;1.00;;;;;;5055317;28;20233;-78
2021/11/29 12:03:06;;;;;;;16.38;11.30;;;4.80;1.00;;;;;;5055355;28;20296;-76
2021/11/29 12:05:34;;;;;;;15.07;10.43;;;5.10;1.00;;;;;;5050050;28;21014;-77
2021/11/29 12:08:03;;;;;;;15.90;11.35;;;5.40;1.00;;;;;;5069641;28;20225;-80
2021/11/29 12:10:44;;;;;;;17.20;11.68;;;5.60;1.00;;;;;;5055980;28;20263;-79
2021/11/29 12:13:15;;;;;;;17.10;12.40;;;5.60;1.00;;;;;;5064087;28;20209;-76
2021/11/29 12:15:46;;;;;;;20.65;13.68;;;5.60;1.00;;;;;;5065157;28;20217;-77
2021/11/29 12:18:16;;;;;;;16.65;12.10;;;5.50;1.00;;;;;;5057505;28;20630;-79
2021/11/29 12:21:14;;;;;;;16.60;12.68;;;5.30;1.00;;;;;;5055421;28;20237;-77
2021/11/29 12:23:45;;;;;;;15.05;10.70;;;5.20;1.00;;;;;;5057197;28;20221;-78
2021/11/29 12:26:13;;;;;;;23.60;12.07;;;5.20;1.00;;;;;;5054934;28;20221;-78
2021/11/29 12:28:42;;;;;;;16.40;11.65;;;5.10;1.00;;;;;;5060043;28;20268;-78
2021/11/29 12:31:36;;;;;;;18.05;11.80;;;5.20;1.00;;;;;;5055899;28;20311;-77
2021/11/29 12:34:05;;;;;;;17.20;10.70;;;5.10;1.00;;;;;;5060938;28;20225;-77
2021/11/29 12:37:10;;;;;;;15.00;10.48;;;5.10;1.00;;;;;;5055635;28;20227;-78
2021/11/29 12:40:07;;;;;;;15.98;11.02;;;5.20;1.00;;;;;;5059674;28;20220;-78
2021/11/29 12:43:02;;;;;;;15.25;11.07;;;5.20;1.00;;;;;;5057980;28;20225;-78
2021/11/29 12:45:35;;;;;;;16.13;10.70;;;5.30;1.00;;;;;;5059785;28;20944;-75
2021/11/29 12:48:12;;;;;;;38.20;26.23;;;5.30;1.00;;;;;;5067580;28;20252;-77
2021/11/29 12:50:55;;;;;;;19.67;12.40;;;5.40;1.00;;;;;;5069530;28;20724;-79
2021/11/29 12:53:31;;;;;;;14.90;9.23;;;5.90;1.00;;;;;;5066897;28;20229;-76
2021/11/29 12:56:23;;;;;;;19.17;11.77;;;7.20;1.00;;;;;;5069595;28;20308;-76
2021/11/29 12:59:00;;;;;;;15.05;9.68;;;7.90;1.00;;;;;;5056455;28;20217;-78
2021/11/29 13:01:37;;;;;;;12.60;8.45;;;7.70;1.00;;;;;;5055813;28;20235;-76
2021/11/29 13:04:19;;;;;;;10.88;8.30;;;7.30;1.00;;;;;;5060662;28;20229;-79
2021/11/29 13:06:58;;;;;;;13.95;9.13;;;6.90;1.00;;;;;;5052506;28;20335;-79
2021/11/29 13:09:36;;;;;;;14.93;9.50;;;6.50;1.00;;;;;;5056403;28;20274;-74
2021/11/29 13:12:19;;;;;;;12.48;8.77;;;6.40;1.00;;;;;;5055807;28;20220;-76
2021/11/29 13:14:48;;;;;;;15.00;10.02;;;6.50;1.00;;;;;;5052275;28;20919;-77
2021/11/29 13:17:16;;;;;;;15.02;8.52;;;6.50;1.00;;;;;;5054981;28;21120;-77
2021/11/29 13:19:45;;;;;;;10.40;8.63;;;6.40;1.00;;;;;;5054366;28;20728;-77
2021/11/29 13:22:13;;;;;;;10.95;7.82;;;6.20;1.00;;;;;;5053620;28;20232;-78
2021/11/29 13:24:43;;;;;;;24.25;10.60;;;6.10;1.00;;;;;;5054728;28;20228;-76
2021/11/29 13:27:14;;;;;;;11.20;8.48;;;6.00;1.00;;;;;;5054129;28;20235;-77
2021/11/29 13:29:48;;;;;;;10.23;8.05;;;5.80;1.00;;;;;;5049945;28;20243;-78